Airfield :







YOU CAN JOIN US ON...

 
LOGIN :

Register | Disclaimer

   EN    FR    IT 

 









Legend :    VFR   Marginal VFR   IFR   Intensive IFR   Very Intensive IFR
Visi :
Ceiling :
>= 8 km
>= 3000ft
5 to 8 km
1000 to 3000 ft
1500m to 5 km
500 to 1000 ft
800 to 1500m
200 to 500 ft
< 800m
< 200 ft
Symbols :   Thunderstorms  Fog  Heavy snow  Heavy precipitations  Wind > 20 kt







- Airport Elevation : 244 ft
- IATA code : YQB


CYQB - Quebec - Jean Lesage Int.

CURRENT METAR :
  • 211700Z 18003KT 160V320 15SM FEW040 FEW150 BKN240 21/13 A3018 RMK CU1AC1CI6 CU TR AC TR SLP221 DENSITY ALT 800FT

EXPIRED METARs :
  • 211600Z 20007KT 160V250 15SM SCT240 20/13 A3019 RMK CI4 SLP224 DENSITY ALT 700FT
  • 211500Z VRB03KT 15SM FEW035 FEW100 FEW240 19/12 A3021 RMK CF1AC1CI2 CF TR AC TR SLP233 DENSITY ALT 500FT

TAF TAF CYQB
Valid from the 21 at 12:00 until the 22 at 12:00 UTC


211138Z 2112/2212 35005KT P6SM SKC
FM211800 22006KT P6SM FEW030
BECMG 2122/2124 VRB03KT
FM220300 VRB03KT P6SM SCT020
PROB30 2206/2212 1/2SM FG VV002 RMK NXT FCST BY 211800Z
ATIS : ENG : +1 418-871-6893 FRA : +1 418-871-6895
No reported NOTAMs for that airfield.



MET'MAP, your aeronautical weather chart ! - Copyright ORBIFLY December 2007 - Disclaimer

ORBIFLY MET'MAP TEAM :

Programming & Development : Alexandra Zaïnal
Concept & Development : Baudouin d'Aumeries
Co-Development & Prog : Marc-Olivier Méhu
Technical & hardware support : Manuel Goepfert

Contact : metmap@orbifly.com




SOURCES & CREDITS :

   NOAA